sensor_id;sensor_type;location;lat;lon;timestamp;temperature;humidity
47022;DHT22;32779;52.264;6.154;2023-11-19T00:02:07;12.40;99.90
47022;DHT22;32779;52.264;6.154;2023-11-19T00:04:36;12.40;99.90
47022;DHT22;32779;52.264;6.154;2023-11-19T00:07:02;12.50;99.90
47022;DHT22;32779;52.264;6.154;2023-11-19T00:09:30;12.50;99.90
47022;DHT22;32779;52.264;6.154;2023-11-19T00:11:55;12.50;99.90
47022;DHT22;32779;52.264;6.154;2023-11-19T00:14:21;12.50;99.90
47022;DHT22;32779;52.264;6.154;2023-11-19T00:16:46;12.60;99.90
47022;DHT22;32779;52.264;6.154;2023-11-19T00:19:12;12.60;99.90
47022;DHT22;32779;52.264;6.154;2023-11-19T00:21:38;12.70;99.90
47022;DHT22;32779;52.264;6.154;2023-11-19T00:24:03;12.70;99.90
47022;DHT22;32779;52.264;6.154;2023-11-19T00:26:29;12.70;99.90
47022;DHT22;32779;52.264;6.154;2023-11-19T00:28:55;12.70;99.90
47022;DHT22;32779;52.264;6.154;2023-11-19T00:31:21;12.70;99.90
47022;DHT22;32779;52.264;6.154;2023-11-19T00:33:47;12.80;99.90
47022;DHT22;32779;52.264;6.154;2023-11-19T00:36:12;12.80;99.90
47022;DHT22;32779;52.264;6.154;2023-11-19T00:38:38;12.80;99.90
47022;DHT22;32779;52.264;6.154;2023-11-19T00:41:04;12.80;99.90
47022;DHT22;32779;52.264;6.154;2023-11-19T00:43:30;12.80;99.90
47022;DHT22;32779;52.264;6.154;2023-11-19T00:45:55;12.80;99.90
47022;DHT22;32779;52.264;6.154;2023-11-19T00:48:21;12.90;99.90
47022;DHT22;32779;52.264;6.154;2023-11-19T00:50:46;12.90;99.90
47022;DHT22;32779;52.264;6.154;2023-11-19T00:53:12;12.90;99.90
47022;DHT22;32779;52.264;6.154;2023-11-19T00:55:37;12.90;99.90
47022;DHT22;32779;52.264;6.154;2023-11-19T00:58:03;12.90;99.90
47022;DHT22;32779;52.264;6.154;2023-11-19T01:00:28;12.90;99.90
47022;DHT22;32779;52.264;6.154;2023-11-19T01:02:54;12.80;99.90
47022;DHT22;32779;52.264;6.154;2023-11-19T01:05:21;12.80;99.90
47022;DHT22;32779;52.264;6.154;2023-11-19T01:07:48;12.80;99.90
47022;DHT22;32779;52.264;6.154;2023-11-19T01:10:14;12.80;99.90
47022;DHT22;32779;52.264;6.154;2023-11-19T01:12:41;12.80;99.90
47022;DHT22;32779;52.264;6.154;2023-11-19T01:15:07;12.80;99.90
47022;DHT22;32779;52.264;6.154;2023-11-19T01:17:33;12.80;99.90
47022;DHT22;32779;52.264;6.154;2023-11-19T01:19:58;12.70;99.90
47022;DHT22;32779;52.264;6.154;2023-11-19T01:22:24;12.70;99.90
47022;DHT22;32779;52.264;6.154;2023-11-19T01:24:49;12.70;99.90
47022;DHT22;32779;52.264;6.154;2023-11-19T01:27:15;12.80;99.90
47022;DHT22;32779;52.264;6.154;2023-11-19T01:29:40;12.80;99.90
47022;DHT22;32779;52.264;6.154;2023-11-19T01:32:08;12.80;99.90
47022;DHT22;32779;52.264;6.154;2023-11-19T01:34:34;12.90;99.90
47022;DHT22;32779;52.264;6.154;2023-11-19T01:37:02;12.90;99.90
47022;DHT22;32779;52.264;6.154;2023-11-19T01:39:28;12.80;99.90
47022;DHT22;32779;52.264;6.154;2023-11-19T01:41:54;12.80;99.90
47022;DHT22;32779;52.264;6.154;2023-11-19T01:44:19;12.80;99.90
47022;DHT22;32779;52.264;6.154;2023-11-19T01:46:46;12.80;99.90
47022;DHT22;32779;52.264;6.154;2023-11-19T01:49:15;12.80;99.90
47022;DHT22;32779;52.264;6.154;2023-11-19T01:51:43;12.80;99.90
47022;DHT22;32779;52.264;6.154;2023-11-19T01:54:09;12.70;99.90
47022;DHT22;32779;52.264;6.154;2023-11-19T01:56:36;12.70;99.90
47022;DHT22;32779;52.264;6.154;2023-11-19T01:59:03;12.70;99.90
47022;DHT22;32779;52.264;6.154;2023-11-19T02:01:29;12.70;99.90
47022;DHT22;32779;52.264;6.154;2023-11-19T02:03:55;12.70;99.90
47022;DHT22;32779;52.264;6.154;2023-11-19T02:06:22;12.70;99.90
47022;DHT22;32779;52.264;6.154;2023-11-19T02:08:50;12.70;99.90
47022;DHT22;32779;52.264;6.154;2023-11-19T02:11:15;12.70;99.90
47022;DHT22;32779;52.264;6.154;2023-11-19T02:13:41;12.70;99.90
47022;DHT22;32779;52.264;6.154;2023-11-19T02:16:07;12.70;99.90
47022;DHT22;32779;52.264;6.154;2023-11-19T02:18:34;12.70;99.90
47022;DHT22;32779;52.264;6.154;2023-11-19T02:21:00;12.70;99.90
47022;DHT22;32779;52.264;6.154;2023-11-19T02:23:27;12.70;99.90
47022;DHT22;32779;52.264;6.154;2023-11-19T02:28:24;12.70;99.90
47022;DHT22;32779;52.264;6.154;2023-11-19T02:30:50;12.70;99.90
47022;DHT22;32779;52.264;6.154;2023-11-19T02:33:16;12.80;99.90
47022;DHT22;32779;52.264;6.154;2023-11-19T02:35:41;12.80;99.90
47022;DHT22;32779;52.264;6.154;2023-11-19T02:38:07;12.80;99.90
47022;DHT22;32779;52.264;6.154;2023-11-19T02:40:33;12.80;99.90
47022;DHT22;32779;52.264;6.154;2023-11-19T02:42:59;12.80;99.90
47022;DHT22;32779;52.264;6.154;2023-11-19T02:45:26;12.80;99.90
47022;DHT22;32779;52.264;6.154;2023-11-19T02:47:52;12.80;99.90
47022;DHT22;32779;52.264;6.154;2023-11-19T02:50:21;12.80;99.90
47022;DHT22;32779;52.264;6.154;2023-11-19T02:52:52;12.80;99.90
47022;DHT22;32779;52.264;6.154;2023-11-19T02:55:39;12.80;99.90
47022;DHT22;32779;52.264;6.154;2023-11-19T02:58:06;12.70;99.90
47022;DHT22;32779;52.264;6.154;2023-11-19T03:00:45;12.70;99.90
47022;DHT22;32779;52.264;6.154;2023-11-19T03:03:19;12.70;99.90
47022;DHT22;32779;52.264;6.154;2023-11-19T03:05:48;12.70;99.90
47022;DHT22;32779;52.264;6.154;2023-11-19T03:08:17;12.70;99.90
47022;DHT22;32779;52.264;6.154;2023-11-19T03:10:43;12.70;99.90
47022;DHT22;32779;52.264;6.154;2023-11-19T03:13:13;12.60;99.90
47022;DHT22;32779;52.264;6.154;2023-11-19T03:15:45;12.60;99.90
47022;DHT22;32779;52.264;6.154;2023-11-19T03:18:11;12.50;99.90
47022;DHT22;32779;52.264;6.154;2023-11-19T03:20:37;12.50;99.90
47022;DHT22;32779;52.264;6.154;2023-11-19T03:23:02;12.50;99.90
47022;DHT22;32779;52.264;6.154;2023-11-19T03:25:28;12.50;99.90
47022;DHT22;32779;52.264;6.154;2023-11-19T03:27:59;12.50;99.90
47022;DHT22;32779;52.264;6.154;2023-11-19T03:30:26;12.50;99.90
47022;DHT22;32779;52.264;6.154;2023-11-19T03:32:52;12.50;99.90
47022;DHT22;32779;52.264;6.154;2023-11-19T03:35:17;12.50;99.90
47022;DHT22;32779;52.264;6.154;2023-11-19T03:37:43;12.40;99.90
47022;DHT22;32779;52.264;6.154;2023-11-19T03:40:09;12.40;99.90
47022;DHT22;32779;52.264;6.154;2023-11-19T03:42:35;12.40;99.90
47022;DHT22;32779;52.264;6.154;2023-11-19T03:45:01;12.40;99.90
47022;DHT22;32779;52.264;6.154;2023-11-19T03:47:29;12.30;99.90
47022;DHT22;32779;52.264;6.154;2023-11-19T03:49:55;12.30;99.90
47022;DHT22;32779;52.264;6.154;2023-11-19T03:52:20;12.20;99.90
47022;DHT22;32779;52.264;6.154;2023-11-19T03:54:46;12.20;99.90
47022;DHT22;32779;52.264;6.154;2023-11-19T03:57:13;12.20;99.90
47022;DHT22;32779;52.264;6.154;2023-11-19T03:59:39;12.20;99.90
47022;DHT22;32779;52.264;6.154;2023-11-19T04:02:05;12.20;99.90
47022;DHT22;32779;52.264;6.154;2023-11-19T04:04:32;12.10;99.90
47022;DHT22;32779;52.264;6.154;2023-11-19T04:06:58;12.10;99.90
47022;DHT22;32779;52.264;6.154;2023-11-19T04:09:24;12.00;99.90
47022;DHT22;32779;52.264;6.154;2023-11-19T04:11:49;12.00;99.90
47022;DHT22;32779;52.264;6.154;2023-11-19T04:14:15;12.00;99.90
47022;DHT22;32779;52.264;6.154;2023-11-19T04:16:43;12.00;99.90
47022;DHT22;32779;52.264;6.154;2023-11-19T04:19:10;11.90;99.90
47022;DHT22;32779;52.264;6.154;2023-11-19T04:21:36;11.90;99.90
47022;DHT22;32779;52.264;6.154;2023-11-19T04:24:01;11.90;99.90
47022;DHT22;32779;52.264;6.154;2023-11-19T04:26:27;11.80;99.90
47022;DHT22;32779;52.264;6.154;2023-11-19T04:28:53;11.80;99.90
47022;DHT22;32779;52.264;6.154;2023-11-19T04:31:18;11.80;99.90
47022;DHT22;32779;52.264;6.154;2023-11-19T04:33:44;11.80;99.90
47022;DHT22;32779;52.264;6.154;2023-11-19T04:36:10;11.80;99.90
47022;DHT22;32779;52.264;6.154;2023-11-19T04:38:35;11.70;99.90
47022;DHT22;32779;52.264;6.154;2023-11-19T04:41:02;11.70;99.90
47022;DHT22;32779;52.264;6.154;2023-11-19T04:43:28;11.70;99.90
47022;DHT22;32779;52.264;6.154;2023-11-19T04:45:53;11.70;99.90
47022;DHT22;32779;52.264;6.154;2023-11-19T04:48:19;11.70;99.90
47022;DHT22;32779;52.264;6.154;2023-11-19T04:50:44;11.70;99.90
47022;DHT22;32779;52.264;6.154;2023-11-19T04:53:10;11.70;99.90
47022;DHT22;32779;52.264;6.154;2023-11-19T04:55:35;11.70;99.90
47022;DHT22;32779;52.264;6.154;2023-11-19T04:58:01;11.70;99.90
47022;DHT22;32779;52.264;6.154;2023-11-19T05:00:26;11.70;99.90
47022;DHT22;32779;52.264;6.154;2023-11-19T05:02:52;11.70;99.90
47022;DHT22;32779;52.264;6.154;2023-11-19T05:05:17;11.70;99.90
47022;DHT22;32779;52.264;6.154;2023-11-19T05:07:43;11.70;99.90
47022;DHT22;32779;52.264;6.154;2023-11-19T05:10:09;11.70;99.90
47022;DHT22;32779;52.264;6.154;2023-11-19T05:12:35;11.70;99.90
47022;DHT22;32779;52.264;6.154;2023-11-19T05:15:08;11.70;99.90
47022;DHT22;32779;52.264;6.154;2023-11-19T05:17:33;11.70;99.90
47022;DHT22;32779;52.264;6.154;2023-11-19T05:19:59;11.70;99.90
47022;DHT22;32779;52.264;6.154;2023-11-19T05:22:25;11.70;99.90
47022;DHT22;32779;52.264;6.154;2023-11-19T05:24:51;11.70;99.90
47022;DHT22;32779;52.264;6.154;2023-11-19T05:27:17;11.70;99.90
47022;DHT22;32779;52.264;6.154;2023-11-19T05:29:43;11.70;99.90
47022;DHT22;32779;52.264;6.154;2023-11-19T05:32:09;11.70;99.90
47022;DHT22;32779;52.264;6.154;2023-11-19T05:34:34;11.70;99.90
47022;DHT22;32779;52.264;6.154;2023-11-19T05:37:00;11.70;99.90
47022;DHT22;32779;52.264;6.154;2023-11-19T05:39:25;11.70;99.90
47022;DHT22;32779;52.264;6.154;2023-11-19T05:41:51;11.80;99.90
47022;DHT22;32779;52.264;6.154;2023-11-19T05:44:17;11.80;99.90
47022;DHT22;32779;52.264;6.154;2023-11-19T05:46:43;11.70;99.90
47022;DHT22;32779;52.264;6.154;2023-11-19T05:49:09;11.70;99.90
47022;DHT22;32779;52.264;6.154;2023-11-19T05:51:37;11.70;99.90
47022;DHT22;32779;52.264;6.154;2023-11-19T05:54:04;11.70;99.90
47022;DHT22;32779;52.264;6.154;2023-11-19T05:56:32;11.70;99.90
47022;DHT22;32779;52.264;6.154;2023-11-19T05:58:58;11.70;99.90
47022;DHT22;32779;52.264;6.154;2023-11-19T06:01:25;11.70;99.90
47022;DHT22;32779;52.264;6.154;2023-11-19T06:03:52;11.60;99.90
47022;DHT22;32779;52.264;6.154;2023-11-19T06:06:18;11.60;99.90
47022;DHT22;32779;52.264;6.154;2023-11-19T06:08:44;11.60;99.90
47022;DHT22;32779;52.264;6.154;2023-11-19T06:11:10;11.60;99.90
47022;DHT22;32779;52.264;6.154;2023-11-19T06:13:40;11.60;99.90
47022;DHT22;32779;52.264;6.154;2023-11-19T06:16:05;11.60;99.90
47022;DHT22;32779;52.264;6.154;2023-11-19T06:18:31;11.60;99.90
47022;DHT22;32779;52.264;6.154;2023-11-19T06:20:57;11.50;99.90
47022;DHT22;32779;52.264;6.154;2023-11-19T06:23:22;11.50;99.90
47022;DHT22;32779;52.264;6.154;2023-11-19T06:25:51;11.50;99.90
47022;DHT22;32779;52.264;6.154;2023-11-19T06:28:16;11.60;99.90
47022;DHT22;32779;52.264;6.154;2023-11-19T06:30:42;11.50;99.90
47022;DHT22;32779;52.264;6.154;2023-11-19T06:33:07;11.50;99.90
47022;DHT22;32779;52.264;6.154;2023-11-19T06:35:33;11.50;99.90
47022;DHT22;32779;52.264;6.154;2023-11-19T06:38:04;11.50;99.90
47022;DHT22;32779;52.264;6.154;2023-11-19T06:40:33;11.50;99.90
47022;DHT22;32779;52.264;6.154;2023-11-19T06:43:00;11.50;99.90
47022;DHT22;32779;52.264;6.154;2023-11-19T06:45:26;11.50;99.90
47022;DHT22;32779;52.264;6.154;2023-11-19T06:47:51;11.50;99.90
47022;DHT22;32779;52.264;6.154;2023-11-19T06:50:17;11.40;99.90
47022;DHT22;32779;52.264;6.154;2023-11-19T06:52:44;11.40;99.90
47022;DHT22;32779;52.264;6.154;2023-11-19T06:55:10;11.40;99.90
47022;DHT22;32779;52.264;6.154;2023-11-19T06:57:36;11.40;99.90
47022;DHT22;32779;52.264;6.154;2023-11-19T07:00:02;11.40;99.90
47022;DHT22;32779;52.264;6.154;2023-11-19T07:02:28;11.40;99.90
47022;DHT22;32779;52.264;6.154;2023-11-19T07:04:53;11.40;99.90
47022;DHT22;32779;52.264;6.154;2023-11-19T07:07:19;11.40;99.90
47022;DHT22;32779;52.264;6.154;2023-11-19T07:09:45;11.40;99.90
47022;DHT22;32779;52.264;6.154;2023-11-19T07:12:11;11.40;99.90
47022;DHT22;32779;52.264;6.154;2023-11-19T07:14:38;11.40;99.90
47022;DHT22;32779;52.264;6.154;2023-11-19T07:17:04;11.40;99.90
47022;DHT22;32779;52.264;6.154;2023-11-19T07:19:29;11.40;99.90
47022;DHT22;32779;52.264;6.154;2023-11-19T07:21:55;11.40;99.90
47022;DHT22;32779;52.264;6.154;2023-11-19T07:24:21;11.40;99.90
47022;DHT22;32779;52.264;6.154;2023-11-19T07:26:47;11.40;99.90
47022;DHT22;32779;52.264;6.154;2023-11-19T07:29:13;11.40;99.90
47022;DHT22;32779;52.264;6.154;2023-11-19T07:31:40;11.40;99.90
47022;DHT22;32779;52.264;6.154;2023-11-19T07:34:05;11.40;99.90
47022;DHT22;32779;52.264;6.154;2023-11-19T07:36:31;11.40;99.90
47022;DHT22;32779;52.264;6.154;2023-11-19T07:38:57;11.40;99.90
47022;DHT22;32779;52.264;6.154;2023-11-19T07:41:23;11.40;99.90
47022;DHT22;32779;52.264;6.154;2023-11-19T07:43:50;11.40;99.90
47022;DHT22;32779;52.264;6.154;2023-11-19T07:46:17;11.40;99.90
47022;DHT22;32779;52.264;6.154;2023-11-19T07:48:45;11.50;99.90
47022;DHT22;32779;52.264;6.154;2023-11-19T07:51:12;11.50;99.90
47022;DHT22;32779;52.264;6.154;2023-11-19T07:53:38;11.50;99.90
47022;DHT22;32779;52.264;6.154;2023-11-19T07:56:04;11.50;99.90
47022;DHT22;32779;52.264;6.154;2023-11-19T07:58:30;11.60;99.90
47022;DHT22;32779;52.264;6.154;2023-11-19T08:00:56;11.60;99.90
47022;DHT22;32779;52.264;6.154;2023-11-19T08:03:22;11.60;99.90
47022;DHT22;32779;52.264;6.154;2023-11-19T08:05:47;11.60;99.90
47022;DHT22;32779;52.264;6.154;2023-11-19T08:08:14;11.60;99.90
47022;DHT22;32779;52.264;6.154;2023-11-19T08:10:40;11.60;99.90
47022;DHT22;32779;52.264;6.154;2023-11-19T08:13:05;11.70;99.90
47022;DHT22;32779;52.264;6.154;2023-11-19T08:15:31;11.70;99.90
47022;DHT22;32779;52.264;6.154;2023-11-19T08:17:57;11.80;99.90
47022;DHT22;32779;52.264;6.154;2023-11-19T08:20:22;11.70;99.90
47022;DHT22;32779;52.264;6.154;2023-11-19T08:22:48;11.80;99.90
47022;DHT22;32779;52.264;6.154;2023-11-19T08:25:14;11.80;99.90
47022;DHT22;32779;52.264;6.154;2023-11-19T08:27:39;11.80;99.90
47022;DHT22;32779;52.264;6.154;2023-11-19T08:30:05;11.90;99.90
47022;DHT22;32779;52.264;6.154;2023-11-19T08:32:31;11.90;99.90
47022;DHT22;32779;52.264;6.154;2023-11-19T08:34:57;12.00;99.90
47022;DHT22;32779;52.264;6.154;2023-11-19T08:37:23;12.00;99.90
47022;DHT22;32779;52.264;6.154;2023-11-19T08:39:48;12.00;99.90
47022;DHT22;32779;52.264;6.154;2023-11-19T08:42:14;12.00;99.90
47022;DHT22;32779;52.264;6.154;2023-11-19T08:44:39;12.00;99.90
47022;DHT22;32779;52.264;6.154;2023-11-19T08:47:08;12.00;99.90
47022;DHT22;32779;52.264;6.154;2023-11-19T08:49:34;12.00;99.90
47022;DHT22;32779;52.264;6.154;2023-11-19T08:52:00;12.00;99.90
47022;DHT22;32779;52.264;6.154;2023-11-19T08:54:26;12.00;99.90
47022;DHT22;32779;52.264;6.154;2023-11-19T08:56:51;12.00;99.90
47022;DHT22;32779;52.264;6.154;2023-11-19T08:59:17;12.00;99.90
47022;DHT22;32779;52.264;6.154;2023-11-19T09:01:43;12.00;99.90
47022;DHT22;32779;52.264;6.154;2023-11-19T09:04:08;12.00;99.90
47022;DHT22;32779;52.264;6.154;2023-11-19T09:06:35;12.00;99.90
47022;DHT22;32779;52.264;6.154;2023-11-19T09:09:01;12.00;99.90
47022;DHT22;32779;52.264;6.154;2023-11-19T09:11:31;12.10;99.90
47022;DHT22;32779;52.264;6.154;2023-11-19T09:13:56;12.10;99.90
47022;DHT22;32779;52.264;6.154;2023-11-19T09:16:22;12.10;99.90
47022;DHT22;32779;52.264;6.154;2023-11-19T09:18:47;12.10;99.90
47022;DHT22;32779;52.264;6.154;2023-11-19T09:21:13;12.10;99.90
47022;DHT22;32779;52.264;6.154;2023-11-19T09:23:39;12.10;99.90
47022;DHT22;32779;52.264;6.154;2023-11-19T09:26:05;12.10;99.90
47022;DHT22;32779;52.264;6.154;2023-11-19T09:28:31;12.10;99.90
47022;DHT22;32779;52.264;6.154;2023-11-19T09:30:56;12.10;99.90
47022;DHT22;32779;52.264;6.154;2023-11-19T09:33:22;12.20;99.90
47022;DHT22;32779;52.264;6.154;2023-11-19T09:35:48;12.20;99.90
47022;DHT22;32779;52.264;6.154;2023-11-19T09:38:15;12.20;99.90
47022;DHT22;32779;52.264;6.154;2023-11-19T09:40:40;12.30;99.90
47022;DHT22;32779;52.264;6.154;2023-11-19T09:43:06;12.30;99.90
47022;DHT22;32779;52.264;6.154;2023-11-19T09:45:32;12.30;99.90
47022;DHT22;32779;52.264;6.154;2023-11-19T09:48:01;12.40;99.90
47022;DHT22;32779;52.264;6.154;2023-11-19T09:50:27;12.40;99.90
47022;DHT22;32779;52.264;6.154;2023-11-19T09:52:53;12.50;99.90
47022;DHT22;32779;52.264;6.154;2023-11-19T09:55:19;12.50;99.90
47022;DHT22;32779;52.264;6.154;2023-11-19T09:57:45;12.60;99.90
47022;DHT22;32779;52.264;6.154;2023-11-19T10:00:12;12.60;99.90
47022;DHT22;32779;52.264;6.154;2023-11-19T10:02:40;12.70;99.90
47022;DHT22;32779;52.264;6.154;2023-11-19T10:05:07;12.70;99.90
47022;DHT22;32779;52.264;6.154;2023-11-19T10:07:33;12.70;99.90
47022;DHT22;32779;52.264;6.154;2023-11-19T10:09:59;12.70;99.90
47022;DHT22;32779;52.264;6.154;2023-11-19T10:12:26;12.60;99.90
47022;DHT22;32779;52.264;6.154;2023-11-19T10:14:51;12.60;99.90
47022;DHT22;32779;52.264;6.154;2023-11-19T10:17:19;12.60;99.90
47022;DHT22;32779;52.264;6.154;2023-11-19T10:19:44;12.70;99.90
47022;DHT22;32779;52.264;6.154;2023-11-19T10:22:10;12.70;99.90
47022;DHT22;32779;52.264;6.154;2023-11-19T10:24:36;12.70;99.90
47022;DHT22;32779;52.264;6.154;2023-11-19T10:27:06;12.70;99.90
47022;DHT22;32779;52.264;6.154;2023-11-19T10:29:36;12.70;99.90
47022;DHT22;32779;52.264;6.154;2023-11-19T10:32:01;12.80;99.90
47022;DHT22;32779;52.264;6.154;2023-11-19T10:34:27;12.80;99.90
47022;DHT22;32779;52.264;6.154;2023-11-19T10:36:54;12.80;99.90
47022;DHT22;32779;52.264;6.154;2023-11-19T10:39:20;12.80;99.90
47022;DHT22;32779;52.264;6.154;2023-11-19T10:41:46;12.80;99.90
47022;DHT22;32779;52.264;6.154;2023-11-19T10:44:11;12.80;99.90
47022;DHT22;32779;52.264;6.154;2023-11-19T10:46:41;12.80;99.90
47022;DHT22;32779;52.264;6.154;2023-11-19T10:49:09;12.70;99.90
47022;DHT22;32779;52.264;6.154;2023-11-19T10:51:35;12.70;99.90
47022;DHT22;32779;52.264;6.154;2023-11-19T10:54:05;12.70;99.90
47022;DHT22;32779;52.264;6.154;2023-11-19T10:56:31;12.70;99.90
47022;DHT22;32779;52.264;6.154;2023-11-19T10:58:57;12.70;99.90
47022;DHT22;32779;52.264;6.154;2023-11-19T11:01:25;12.70;99.90
47022;DHT22;32779;52.264;6.154;2023-11-19T11:03:52;12.70;99.90
47022;DHT22;32779;52.264;6.154;2023-11-19T11:06:19;12.70;99.90
47022;DHT22;32779;52.264;6.154;2023-11-19T11:08:46;12.80;99.90
47022;DHT22;32779;52.264;6.154;2023-11-19T11:11:13;12.80;99.90
47022;DHT22;32779;52.264;6.154;2023-11-19T11:13:42;12.70;99.90
47022;DHT22;32779;52.264;6.154;2023-11-19T11:16:07;12.70;99.90
47022;DHT22;32779;52.264;6.154;2023-11-19T11:18:33;12.70;99.90
47022;DHT22;32779;52.264;6.154;2023-11-19T11:21:00;12.70;99.90
47022;DHT22;32779;52.264;6.154;2023-11-19T11:26:28;12.80;99.90
47022;DHT22;32779;52.264;6.154;2023-11-19T11:29:01;12.80;99.90
47022;DHT22;32779;52.264;6.154;2023-11-19T11:34:45;12.90;99.90
47022;DHT22;32779;52.264;6.154;2023-11-19T11:38:06;13.00;99.90
47022;DHT22;32779;52.264;6.154;2023-11-19T11:40:06;13.00;99.90
47022;DHT22;32779;52.264;6.154;2023-11-19T11:42:36;13.00;99.90
47022;DHT22;32779;52.264;6.154;2023-11-19T11:45:08;13.00;99.90
47022;DHT22;32779;52.264;6.154;2023-11-19T11:50:18;13.00;99.90
47022;DHT22;32779;52.264;6.154;2023-11-19T11:55:34;13.20;99.90
47022;DHT22;32779;52.264;6.154;2023-11-19T11:58:02;13.30;99.90
47022;DHT22;32779;52.264;6.154;2023-11-19T12:00:30;13.40;99.90
47022;DHT22;32779;52.264;6.154;2023-11-19T12:02:57;13.40;99.90
47022;DHT22;32779;52.264;6.154;2023-11-19T12:05:24;13.40;99.90
47022;DHT22;32779;52.264;6.154;2023-11-19T12:07:59;13.40;99.90
47022;DHT22;32779;52.264;6.154;2023-11-19T12:10:26;13.40;99.90
47022;DHT22;32779;52.264;6.154;2023-11-19T12:13:00;13.30;99.90
47022;DHT22;32779;52.264;6.154;2023-11-19T12:15:26;13.30;99.90
47022;DHT22;32779;52.264;6.154;2023-11-19T12:17:56;13.30;99.90
47022;DHT22;32779;52.264;6.154;2023-11-19T12:20:22;13.30;99.90
47022;DHT22;32779;52.264;6.154;2023-11-19T12:22:48;13.20;99.90
47022;DHT22;32779;52.264;6.154;2023-11-19T12:25:14;13.20;99.90
47022;DHT22;32779;52.264;6.154;2023-11-19T12:27:42;13.20;99.90
47022;DHT22;32779;52.264;6.154;2023-11-19T12:30:08;13.30;99.90
47022;DHT22;32779;52.264;6.154;2023-11-19T12:32:40;13.30;99.90
47022;DHT22;32779;52.264;6.154;2023-11-19T12:35:06;13.30;99.90
47022;DHT22;32779;52.264;6.154;2023-11-19T12:37:32;13.30;99.90
47022;DHT22;32779;52.264;6.154;2023-11-19T12:39:58;13.30;99.90
47022;DHT22;32779;52.264;6.154;2023-11-19T12:42:38;13.30;99.90
47022;DHT22;32779;52.264;6.154;2023-11-19T12:45:05;13.20;99.90
47022;DHT22;32779;52.264;6.154;2023-11-19T12:47:30;13.20;99.90
47022;DHT22;32779;52.264;6.154;2023-11-19T12:49:58;13.10;99.90
47022;DHT22;32779;52.264;6.154;2023-11-19T12:52:24;13.10;99.90
47022;DHT22;32779;52.264;6.154;2023-11-19T12:54:50;13.00;99.90
47022;DHT22;32779;52.264;6.154;2023-11-19T12:57:16;13.00;99.90
47022;DHT22;32779;52.264;6.154;2023-11-19T12:59:42;13.00;99.90
47022;DHT22;32779;52.264;6.154;2023-11-19T13:02:08;13.00;99.90
47022;DHT22;32779;52.264;6.154;2023-11-19T13:04:34;13.00;99.90
47022;DHT22;32779;52.264;6.154;2023-11-19T13:07:00;13.00;99.90
47022;DHT22;32779;52.264;6.154;2023-11-19T13:09:26;13.10;99.90
47022;DHT22;32779;52.264;6.154;2023-11-19T13:11:52;13.10;99.90
47022;DHT22;32779;52.264;6.154;2023-11-19T13:14:18;13.10;99.90
47022;DHT22;32779;52.264;6.154;2023-11-19T13:16:44;13.20;99.90
47022;DHT22;32779;52.264;6.154;2023-11-19T13:19:15;13.20;99.90
47022;DHT22;32779;52.264;6.154;2023-11-19T13:21:41;13.20;99.90
47022;DHT22;32779;52.264;6.154;2023-11-19T13:24:07;13.20;99.90
47022;DHT22;32779;52.264;6.154;2023-11-19T13:26:36;13.10;99.90
47022;DHT22;32779;52.264;6.154;2023-11-19T13:29:01;13.20;99.90
47022;DHT22;32779;52.264;6.154;2023-11-19T13:31:27;13.10;99.90
47022;DHT22;32779;52.264;6.154;2023-11-19T13:33:53;13.10;99.90
47022;DHT22;32779;52.264;6.154;2023-11-19T13:36:19;13.10;99.90
47022;DHT22;32779;52.264;6.154;2023-11-19T13:38:45;13.10;99.90
47022;DHT22;32779;52.264;6.154;2023-11-19T13:41:10;13.10;99.90
47022;DHT22;32779;52.264;6.154;2023-11-19T13:43:37;13.00;99.90
47022;DHT22;32779;52.264;6.154;2023-11-19T13:46:03;13.00;99.90
47022;DHT22;32779;52.264;6.154;2023-11-19T13:48:29;13.00;99.90
47022;DHT22;32779;52.264;6.154;2023-11-19T13:50:55;13.10;99.90
47022;DHT22;32779;52.264;6.154;2023-11-19T13:53:20;13.00;99.90
47022;DHT22;32779;52.264;6.154;2023-11-19T13:55:46;13.00;99.90
47022;DHT22;32779;52.264;6.154;2023-11-19T13:58:13;13.00;99.90
47022;DHT22;32779;52.264;6.154;2023-11-19T14:00:38;13.00;99.90
47022;DHT22;32779;52.264;6.154;2023-11-19T14:03:05;13.00;99.90
47022;DHT22;32779;52.264;6.154;2023-11-19T14:05:31;13.00;99.90
47022;DHT22;32779;52.264;6.154;2023-11-19T14:07:57;12.90;99.90
47022;DHT22;32779;52.264;6.154;2023-11-19T14:10:23;12.90;99.90
47022;DHT22;32779;52.264;6.154;2023-11-19T14:12:48;12.90;99.90
47022;DHT22;32779;52.264;6.154;2023-11-19T14:15:15;12.90;99.90
47022;DHT22;32779;52.264;6.154;2023-11-19T14:17:42;12.80;99.90
47022;DHT22;32779;52.264;6.154;2023-11-19T14:20:08;12.80;99.90
47022;DHT22;32779;52.264;6.154;2023-11-19T14:22:44;12.80;99.90
47022;DHT22;32779;52.264;6.154;2023-11-19T14:25:10;12.80;99.90
47022;DHT22;32779;52.264;6.154;2023-11-19T14:27:40;12.80;99.90
47022;DHT22;32779;52.264;6.154;2023-11-19T14:30:05;12.70;99.90
47022;DHT22;32779;52.264;6.154;2023-11-19T14:32:31;12.70;99.90
47022;DHT22;32779;52.264;6.154;2023-11-19T14:34:57;12.70;99.90
47022;DHT22;32779;52.264;6.154;2023-11-19T14:37:22;12.60;99.90
47022;DHT22;32779;52.264;6.154;2023-11-19T14:39:48;12.60;99.90
47022;DHT22;32779;52.264;6.154;2023-11-19T14:42:16;12.60;99.90
47022;DHT22;32779;52.264;6.154;2023-11-19T14:44:41;12.50;99.90
47022;DHT22;32779;52.264;6.154;2023-11-19T14:47:07;12.50;99.90
47022;DHT22;32779;52.264;6.154;2023-11-19T14:49:36;12.40;99.90
47022;DHT22;32779;52.264;6.154;2023-11-19T14:52:03;12.40;99.90
47022;DHT22;32779;52.264;6.154;2023-11-19T14:54:29;12.30;99.90
47022;DHT22;32779;52.264;6.154;2023-11-19T14:56:54;12.30;99.90
47022;DHT22;32779;52.264;6.154;2023-11-19T14:59:20;12.30;99.90
47022;DHT22;32779;52.264;6.154;2023-11-19T15:01:45;12.20;99.90
47022;DHT22;32779;52.264;6.154;2023-11-19T15:04:11;12.20;99.90
47022;DHT22;32779;52.264;6.154;2023-11-19T15:06:37;12.20;99.90
47022;DHT22;32779;52.264;6.154;2023-11-19T15:09:03;12.10;99.90
47022;DHT22;32779;52.264;6.154;2023-11-19T15:11:29;12.20;99.90
47022;DHT22;32779;52.264;6.154;2023-11-19T15:13:54;12.10;99.90
47022;DHT22;32779;52.264;6.154;2023-11-19T15:16:20;12.10;99.90
47022;DHT22;32779;52.264;6.154;2023-11-19T15:18:51;12.10;99.90
47022;DHT22;32779;52.264;6.154;2023-11-19T15:21:17;12.10;99.90
47022;DHT22;32779;52.264;6.154;2023-11-19T15:23:46;12.00;99.90
47022;DHT22;32779;52.264;6.154;2023-11-19T15:26:11;12.00;99.90
47022;DHT22;32779;52.264;6.154;2023-11-19T15:28:37;12.00;99.90
47022;DHT22;32779;52.264;6.154;2023-11-19T15:31:03;12.00;99.90
47022;DHT22;32779;52.264;6.154;2023-11-19T15:33:28;12.00;99.90
47022;DHT22;32779;52.264;6.154;2023-11-19T15:35:54;12.00;99.90
47022;DHT22;32779;52.264;6.154;2023-11-19T15:38:19;12.00;99.90
47022;DHT22;32779;52.264;6.154;2023-11-19T15:40:45;11.90;99.90